Ekalaka, Montana
Current Conditions -  °F | °C
As of 2:51 AM on Saturday 22 Nov 2014 (Local Time) from KBHK Reporting Station
Clear Clear  
Wind Chill: 27°   Ceiling: Unl
Heat Index: 27°   Visibility: 10mi
Dew Point: 20°   Wind: 3mph
Humidity: 75%   Direction: 70°ENE
Pressure: 29.59"   Gusts: NA
Location:  45.89°N, 104.55°W
Report Text: KBHK 220951Z AUTO 07003KT 10SM CLR M03/M07 A2959 RMK AO2 SLP035 T10281067
Loading
Personal Weather Stations






























Interactive Weather Map New forecast layout! Learn more

10-Day Weather Forecast

Advertisements
Track Severe Weather on mobile